Terminal Aerodrome Forecast
Issued by NWS

Home | Current Version | Previous Version | Text Only | Print | Product List | Glossary On
Versions: 1 2 3 4 5 6 7 8 9 10 11 12 13 14
000
FTAK31 PANC 232330
TAFAAQ
TAF
PAAQ 232330Z 2400/2424 15008KT P6SM VCSH BKN060
      TEMPO 2401/2405 15008G15KT
     FM240600 VRB03KT P6SM VCSH BKN060
     FM242100 14015KT P6SM OVC100=

USA.gov is the U.S. government's official web portal to all federal, state and local government web resources and services.